createdAt,value
2022-09-23T00:01:33.882Z,1.67
2022-09-23T00:04:00.438Z,1.67
2022-09-23T00:06:30.009Z,1.45
2022-09-23T00:08:56.337Z,1.75
2022-09-23T00:11:24.364Z,1.60
2022-09-23T00:13:52.387Z,1.38
2022-09-23T00:16:23.074Z,1.83
2022-09-23T00:18:50.424Z,1.80
2022-09-23T00:21:16.890Z,1.95
2022-09-23T00:23:43.439Z,1.70
2022-09-23T00:26:10.935Z,1.38
2022-09-23T00:28:37.305Z,1.70
2022-09-23T00:31:11.712Z,1.83
2022-09-23T00:33:38.450Z,1.67
2022-09-23T00:36:06.720Z,1.40
2022-09-23T00:38:34.013Z,1.95
2022-09-23T00:41:00.683Z,1.60
2022-09-23T00:43:40.669Z,1.63
2022-09-23T00:46:08.288Z,1.73
2022-09-23T00:48:35.292Z,1.70
2022-09-23T00:51:01.671Z,1.65
2022-09-23T00:53:28.276Z,1.55
2022-09-23T00:55:55.636Z,1.50
2022-09-23T00:58:25.143Z,1.40
2022-09-23T01:00:51.474Z,1.58
2022-09-23T01:03:19.604Z,1.50
2022-09-23T01:05:46.946Z,1.60
2022-09-23T01:08:14.159Z,1.52
2022-09-23T01:10:48.651Z,1.50
2022-09-23T01:13:32.083Z,1.65
2022-09-23T01:16:05.609Z,1.58
2022-09-23T01:18:40.360Z,1.67
2022-09-23T01:21:14.434Z,1.55
2022-09-23T01:23:59.427Z,1.52
2022-09-23T01:26:32.030Z,1.70
2022-09-23T01:29:10.934Z,1.85
2022-09-23T01:31:44.774Z,1.48
2022-09-23T01:34:24.485Z,1.73
2022-09-23T01:37:00.671Z,1.30
2022-09-23T01:39:37.707Z,1.50
2022-09-23T01:42:07.098Z,1.50
2022-09-23T01:44:42.972Z,1.50
2022-09-23T01:47:14.601Z,1.75
2022-09-23T01:49:49.301Z,1.63
2022-09-23T01:52:19.424Z,1.55
2022-09-23T01:54:53.704Z,1.65
2022-09-23T01:57:25.525Z,1.60
2022-09-23T02:00:22.287Z,1.30
2022-09-23T02:05:28.395Z,1.58
2022-09-23T02:08:00.125Z,1.70
2022-09-23T02:10:32.979Z,1.52
2022-09-23T02:13:02.905Z,1.52
2022-09-23T02:15:33.538Z,1.55
2022-09-23T02:18:08.469Z,1.27
2022-09-23T02:20:36.714Z,1.55
2022-09-23T02:23:08.279Z,1.77
2022-09-23T02:25:54.791Z,1.52
2022-09-23T02:28:30.836Z,1.48
2022-09-23T02:31:03.238Z,1.48
2022-09-23T02:33:35.571Z,1.40
2022-09-23T02:36:20.591Z,1.85
2022-09-23T02:38:52.570Z,1.83
2022-09-23T02:41:32.442Z,1.73
2022-09-23T02:44:07.390Z,1.60
2022-09-23T02:46:34.182Z,1.58
2022-09-23T02:49:15.068Z,1.48
2022-09-23T02:51:41.509Z,1.23
2022-09-23T02:54:10.533Z,1.83
2022-09-23T02:56:37.393Z,1.50
2022-09-23T02:59:03.887Z,1.70
2022-09-23T03:01:40.154Z,1.60
2022-09-23T03:04:25.740Z,1.75
2022-09-23T03:07:06.164Z,1.35
2022-09-23T03:09:32.403Z,1.63
2022-09-23T03:12:20.209Z,1.58
2022-09-23T03:14:53.735Z,1.52
2022-09-23T03:17:25.201Z,1.70
2022-09-23T03:20:02.827Z,1.63
2022-09-23T03:22:29.190Z,1.52
2022-09-23T03:24:59.076Z,1.50
2022-09-23T03:27:28.108Z,1.52
2022-09-23T03:29:55.159Z,1.52
2022-09-23T03:32:23.449Z,1.67
2022-09-23T03:34:50.879Z,1.58
2022-09-23T03:37:19.922Z,1.58
2022-09-23T03:39:56.267Z,1.30
2022-09-23T03:42:24.911Z,1.30
2022-09-23T03:44:56.359Z,1.60
2022-09-23T03:47:24.175Z,1.23
2022-09-23T03:49:51.514Z,1.60
2022-09-23T03:52:18.491Z,1.50
2022-09-23T03:54:45.017Z,1.60
2022-09-23T03:57:11.750Z,1.50
2022-09-23T03:59:38.087Z,2.10
2022-09-23T04:02:07.303Z,1.55
2022-09-23T04:07:00.566Z,1.45
2022-09-23T04:09:26.962Z,1.38
2022-09-23T04:11:53.479Z,1.30
2022-09-23T04:14:20.735Z,1.33
2022-09-23T04:16:47.674Z,1.50
2022-09-23T04:19:14.840Z,1.25
2022-09-23T04:21:41.576Z,1.33
2022-09-23T04:24:08.387Z,1.50
2022-09-23T04:26:35.287Z,1.75
2022-09-23T04:29:01.849Z,1.63
2022-09-23T04:31:28.839Z,1.40
2022-09-23T04:33:55.627Z,1.70
2022-09-23T04:36:21.917Z,1.48
2022-09-23T04:38:49.148Z,1.50
2022-09-23T04:41:15.874Z,1.30
2022-09-23T04:43:42.894Z,1.60
2022-09-23T04:46:11.059Z,1.40
2022-09-23T04:48:38.099Z,1.30
2022-09-23T04:51:11.253Z,1.42
2022-09-23T04:53:39.043Z,1.50
2022-09-23T04:56:06.973Z,1.30
2022-09-23T04:58:34.467Z,1.50
2022-09-23T05:01:10.379Z,1.80
2022-09-23T05:03:36.875Z,2.00
2022-09-23T05:06:03.274Z,1.60
2022-09-23T05:08:29.849Z,1.40
2022-09-23T05:10:56.835Z,1.70
2022-09-23T05:13:23.094Z,1.67
2022-09-23T05:15:49.392Z,1.77
2022-09-23T05:18:20.210Z,2.20
2022-09-23T05:20:52.484Z,1.80
2022-09-23T05:23:18.780Z,1.83
2022-09-23T05:25:45.302Z,2.10
2022-09-23T05:28:11.576Z,2.58
2022-09-23T05:30:37.844Z,1.80
2022-09-23T05:33:04.266Z,1.92
2022-09-23T05:35:30.536Z,1.23
2022-09-23T05:37:56.838Z,1.67
2022-09-23T05:40:23.192Z,1.58
2022-09-23T05:42:49.987Z,1.90
2022-09-23T05:45:16.365Z,2.10
2022-09-23T05:47:43.048Z,1.50
2022-09-23T05:50:09.477Z,1.63
2022-09-23T05:52:36.227Z,1.60
2022-09-23T05:55:02.583Z,1.80
2022-09-23T05:57:30.204Z,1.40
2022-09-23T05:59:56.479Z,1.58
2022-09-23T06:02:22.791Z,1.60
2022-09-23T06:04:49.156Z,1.90
2022-09-23T06:07:15.423Z,1.88
2022-09-23T06:09:42.316Z,1.52
2022-09-23T06:12:08.588Z,1.63
2022-09-23T06:14:34.886Z,1.58
2022-09-23T06:17:01.307Z,1.65
2022-09-23T06:19:27.646Z,1.95
2022-09-23T06:21:54.051Z,1.90
2022-09-23T06:24:23.036Z,1.80
2022-09-23T06:26:52.321Z,2.00
2022-09-23T06:29:18.698Z,2.03
2022-09-23T06:31:45.109Z,2.10
2022-09-23T06:34:13.644Z,1.92
2022-09-23T06:36:45.351Z,1.90
2022-09-23T06:39:12.942Z,2.20
2022-09-23T06:41:39.461Z,1.77
2022-09-23T06:44:06.074Z,1.95
2022-09-23T06:46:32.581Z,1.70
2022-09-23T06:48:59.235Z,1.73
2022-09-23T06:51:25.514Z,1.75
2022-09-23T06:53:52.440Z,1.70
2022-09-23T06:56:21.000Z,1.80
2022-09-23T06:58:47.355Z,1.70
2022-09-23T07:01:17.722Z,1.80
2022-09-23T07:03:45.411Z,1.92
2022-09-23T07:06:11.760Z,1.80
2022-09-23T07:08:38.171Z,2.10
2022-09-23T07:11:06.181Z,1.90
2022-09-23T07:13:33.439Z,1.50
2022-09-23T07:16:01.786Z,2.08
2022-09-23T07:18:34.249Z,1.80
2022-09-23T07:21:15.055Z,1.77
2022-09-23T07:23:42.615Z,1.70
2022-09-23T07:26:09.009Z,1.42
2022-09-23T07:28:36.749Z,1.75
2022-09-23T07:31:04.486Z,1.67
2022-09-23T07:33:33.058Z,2.13
2022-09-23T07:38:29.876Z,2.10
2022-09-23T07:41:06.351Z,1.73
2022-09-23T07:43:32.789Z,1.75
2022-09-23T07:45:59.971Z,1.70
2022-09-23T07:48:28.669Z,2.20
2022-09-23T07:50:59.868Z,1.90
2022-09-23T07:53:27.150Z,1.75
2022-09-23T07:55:54.130Z,1.83
2022-09-23T07:58:20.588Z,1.80
2022-09-23T08:00:46.961Z,1.80
2022-09-23T08:03:14.773Z,1.90
2022-09-23T08:05:41.178Z,1.98
2022-09-23T08:08:07.605Z,1.90
2022-09-23T08:10:34.390Z,2.10
2022-09-23T08:13:03.576Z,1.77
2022-09-23T08:15:31.247Z,2.30
2022-09-23T08:17:59.750Z,1.90
2022-09-23T08:20:47.064Z,1.80
2022-09-23T08:23:14.947Z,2.45
2022-09-23T08:25:44.651Z,2.00
2022-09-23T08:28:17.074Z,2.30
2022-09-23T08:30:44.263Z,2.20
2022-09-23T08:33:13.562Z,2.20
2022-09-23T08:35:40.159Z,1.95
2022-09-23T08:38:07.010Z,2.00
2022-09-23T08:40:34.420Z,2.13
2022-09-23T08:43:01.011Z,2.08
2022-09-23T08:45:27.815Z,2.50
2022-09-23T08:48:13.304Z,2.20
2022-09-23T08:50:48.221Z,2.15
2022-09-23T08:53:17.368Z,2.13
2022-09-23T08:55:46.237Z,1.92
2022-09-23T09:03:29.093Z,2.47
2022-09-23T09:05:56.793Z,2.20
2022-09-23T09:08:25.823Z,2.10
2022-09-23T09:10:54.410Z,2.05
2022-09-23T09:13:33.953Z,2.30
2022-09-23T09:16:06.318Z,1.77
2022-09-23T09:18:33.937Z,2.20
2022-09-23T09:21:08.619Z,2.20
2022-09-23T09:23:39.405Z,2.00
2022-09-23T09:26:06.394Z,2.03
2022-09-23T09:28:40.624Z,2.08
2022-09-23T09:31:26.645Z,2.50
2022-09-23T09:33:57.988Z,2.53
2022-09-23T09:36:43.059Z,1.85
2022-09-23T09:39:12.158Z,2.20
2022-09-23T09:41:40.349Z,2.38
2022-09-23T09:44:15.812Z,2.90
2022-09-23T09:46:55.306Z,2.17
2022-09-23T09:49:40.294Z,2.30
2022-09-23T09:52:13.333Z,2.10
2022-09-23T09:54:40.021Z,2.22
2022-09-23T09:57:11.853Z,2.30
2022-09-23T09:59:42.042Z,2.20
2022-09-23T10:02:14.580Z,2.28
2022-09-23T10:04:41.225Z,2.20
2022-09-23T10:07:14.584Z,1.90
2022-09-23T10:09:47.955Z,2.05
2022-09-23T10:12:15.845Z,2.00
2022-09-23T10:14:42.726Z,2.10
2022-09-23T10:17:14.818Z,2.25
2022-09-23T10:19:45.737Z,2.13
2022-09-23T10:22:20.517Z,2.47
2022-09-23T10:24:52.657Z,1.98
2022-09-23T10:27:26.260Z,2.00
2022-09-23T10:29:55.223Z,2.33
2022-09-23T10:32:30.941Z,2.03
2022-09-23T10:35:03.318Z,2.10
2022-09-23T10:37:34.700Z,2.08
2022-09-23T10:40:25.032Z,1.90
2022-09-23T10:43:16.492Z,2.10
2022-09-23T10:46:03.954Z,2.33
2022-09-23T10:48:30.335Z,2.30
2022-09-23T10:50:59.466Z,2.30
2022-09-23T10:53:26.079Z,2.20
2022-09-23T10:56:11.126Z,2.22
2022-09-23T10:58:37.440Z,2.13
2022-09-23T11:01:17.287Z,2.10
2022-09-23T11:03:46.693Z,2.10
2022-09-23T11:06:20.062Z,2.20
2022-09-23T11:08:52.944Z,2.10
2022-09-23T11:11:22.439Z,2.05
2022-09-23T11:14:04.114Z,2.40
2022-09-23T11:16:39.034Z,2.10
2022-09-23T11:19:05.634Z,1.92
2022-09-23T11:21:57.853Z,2.30
2022-09-23T11:24:28.031Z,2.30
2022-09-23T11:26:57.513Z,1.85
2022-09-23T11:29:26.896Z,1.85
2022-09-23T11:31:57.388Z,1.83
2022-09-23T11:34:28.941Z,1.98
2022-09-23T11:37:13.991Z,1.77
2022-09-23T11:39:44.122Z,1.90
2022-09-23T11:42:14.501Z,1.92
2022-09-23T11:44:47.033Z,2.22
2022-09-23T11:47:21.129Z,2.10
2022-09-23T11:49:53.764Z,2.00
2022-09-23T11:52:20.561Z,2.10
2022-09-23T11:54:57.390Z,1.90
2022-09-23T11:57:46.008Z,1.95
2022-09-23T12:00:34.145Z,2.03
2022-09-23T12:03:18.382Z,1.80
2022-09-23T12:05:47.408Z,1.50
2022-09-23T12:08:30.640Z,1.60
2022-09-23T12:11:15.889Z,1.88
2022-09-23T12:14:01.318Z,1.90
2022-09-23T12:16:46.869Z,1.77
2022-09-23T12:19:22.489Z,1.95
2022-09-23T12:21:51.964Z,1.83
2022-09-23T12:24:24.751Z,1.40
2022-09-23T12:26:57.217Z,1.50
2022-09-23T12:29:24.897Z,1.67
2022-09-23T12:31:51.351Z,2.00
2022-09-23T12:34:40.451Z,1.90
2022-09-23T12:37:06.807Z,1.60
2022-09-23T12:39:35.541Z,1.40
2022-09-23T12:42:03.299Z,1.83
2022-09-23T12:44:29.607Z,1.98
2022-09-23T12:47:14.400Z,2.10
2022-09-23T12:49:44.487Z,1.90
2022-09-23T12:52:11.182Z,1.70
2022-09-23T12:54:38.206Z,1.60
2022-09-23T12:57:06.109Z,1.90
2022-09-23T12:59:55.209Z,1.80
2022-09-23T13:02:21.659Z,1.55
2022-09-23T13:05:25.756Z,1.77
2022-09-23T13:07:54.804Z,1.95
2022-09-23T13:10:39.977Z,1.83
2022-09-23T13:13:06.625Z,2.00
2022-09-23T13:15:34.510Z,2.20
2022-09-23T13:18:20.465Z,1.83
2022-09-23T13:20:48.330Z,2.35
2022-09-23T13:23:14.686Z,2.15
2022-09-23T13:25:41.842Z,2.08
2022-09-23T13:28:17.715Z,2.70
2022-09-23T13:30:47.889Z,2.78
2022-09-23T13:33:16.246Z,2.22
2022-09-23T13:35:52.395Z,2.35
2022-09-23T13:38:26.561Z,2.00
2022-09-23T13:40:58.829Z,2.00
2022-09-23T13:43:28.036Z,1.60
2022-09-23T13:45:55.099Z,2.13
2022-09-23T13:48:23.692Z,2.33
2022-09-23T13:50:51.087Z,1.88
2022-09-23T13:53:21.667Z,1.67
2022-09-23T13:55:58.550Z,1.67
2022-09-23T13:58:28.522Z,1.83
2022-09-23T14:00:55.137Z,1.63
2022-09-23T14:03:21.540Z,1.65
2022-09-23T14:05:48.484Z,1.73
2022-09-23T14:08:14.898Z,1.90
2022-09-23T14:10:43.234Z,1.80
2022-09-23T14:13:14.450Z,1.95
2022-09-23T14:15:40.904Z,2.53
2022-09-23T14:18:07.670Z,2.38
2022-09-23T14:20:44.599Z,2.00
2022-09-23T14:23:12.025Z,2.08
2022-09-23T14:25:39.031Z,1.83
2022-09-23T14:28:05.392Z,2.47
2022-09-23T14:30:31.926Z,1.92
2022-09-23T14:32:59.202Z,2.05
2022-09-23T14:35:28.210Z,2.00
2022-09-23T14:38:16.528Z,1.50
2022-09-23T14:41:15.495Z,1.67
2022-09-23T14:43:49.322Z,1.65
2022-09-23T14:46:19.541Z,1.40
2022-09-23T14:49:00.581Z,1.45
2022-09-23T14:51:35.822Z,1.80
2022-09-23T14:54:20.657Z,1.58
2022-09-23T14:56:47.262Z,1.88
2022-09-23T14:59:27.920Z,2.03
2022-09-23T15:01:54.614Z,1.88
2022-09-23T15:05:14.645Z,1.63
2022-09-23T15:07:41.755Z,1.48
2022-09-23T15:10:13.123Z,2.38
2022-09-23T15:14:38.168Z,1.48
2022-09-23T15:17:07.972Z,3.50
2022-09-23T15:20:52.317Z,1.38
2022-09-23T15:23:37.322Z,1.42
2022-09-23T15:26:13.930Z,1.48
2022-09-23T15:28:40.817Z,1.80
2022-09-23T15:31:09.207Z,1.42
2022-09-23T15:33:36.101Z,1.73
2022-09-23T15:36:03.225Z,1.90
2022-09-23T15:38:29.537Z,2.00
2022-09-23T15:40:55.926Z,2.00
2022-09-23T15:43:24.084Z,3.08
2022-09-23T15:47:55.681Z,2.10
2022-09-23T15:50:22.120Z,1.92
2022-09-23T15:52:48.737Z,1.90
2022-09-23T15:55:21.845Z,1.75
2022-09-23T15:57:48.550Z,1.50
2022-09-23T16:00:16.151Z,1.48
2022-09-23T16:02:47.547Z,2.05
2022-09-23T16:05:46.693Z,1.88
2022-09-23T16:08:14.636Z,2.15
2022-09-23T16:10:42.440Z,1.67
2022-09-23T16:13:13.967Z,1.80
2022-09-23T16:15:41.279Z,1.70
2022-09-23T16:18:09.662Z,1.65
2022-09-23T16:20:44.670Z,2.10
2022-09-23T16:25:47.521Z,1.50
2022-09-23T16:28:14.129Z,1.50
2022-09-23T16:30:40.546Z,1.58
2022-09-23T16:33:06.946Z,1.25
2022-09-23T16:35:33.862Z,1.30
2022-09-23T16:38:00.381Z,1.27
2022-09-23T16:40:26.936Z,1.33
2022-09-23T16:42:55.022Z,1.25
2022-09-23T16:45:23.090Z,1.20
2022-09-23T16:47:51.928Z,1.40
2022-09-23T16:50:21.868Z,1.33
2022-09-23T16:52:48.701Z,1.58
2022-09-23T16:55:15.437Z,1.52
2022-09-23T16:57:42.047Z,1.20
2022-09-23T17:00:32.765Z,1.30
2022-09-23T17:03:18.645Z,1.35
2022-09-23T17:05:46.876Z,1.55
2022-09-23T17:08:15.787Z,1.85
2022-09-23T17:10:43.995Z,1.60
2022-09-23T17:13:15.070Z,1.40
2022-09-23T17:15:44.054Z,1.20
2022-09-23T17:18:11.348Z,2.45
2022-09-23T17:20:38.829Z,2.65
2022-09-23T17:23:05.504Z,3.97
2022-09-23T17:25:33.994Z,2.28
2022-09-23T17:28:00.822Z,2.90
2022-09-23T17:30:28.742Z,2.65
2022-09-23T17:32:55.151Z,2.40
2022-09-23T17:35:21.796Z,2.63
2022-09-23T17:37:48.386Z,2.60
2022-09-23T17:40:15.152Z,2.20
2022-09-23T17:42:41.989Z,2.58
2022-09-23T17:45:10.293Z,2.72
2022-09-23T17:47:41.300Z,2.63
2022-09-23T17:50:08.296Z,2.22
2022-09-23T17:52:34.959Z,2.42
2022-09-23T17:55:01.803Z,1.90
2022-09-23T17:57:28.282Z,1.98
2022-09-23T17:59:56.023Z,1.80
2022-09-23T18:02:22.635Z,1.60
2022-09-23T18:04:49.704Z,1.70
2022-09-23T18:07:16.431Z,1.70
2022-09-23T18:09:42.892Z,1.83
2022-09-23T18:12:09.392Z,1.30
2022-09-23T18:14:35.897Z,1.63
2022-09-23T18:17:02.341Z,1.58
2022-09-23T18:19:28.865Z,2.17
2022-09-23T18:21:57.187Z,1.73
2022-09-23T18:24:33.057Z,1.58
2022-09-23T18:27:00.887Z,1.38
2022-09-23T18:29:28.131Z,1.70
2022-09-23T18:31:54.717Z,2.83
2022-09-23T18:34:21.438Z,4.18
2022-09-23T18:36:47.936Z,4.10
2022-09-23T18:39:14.433Z,2.40
2022-09-23T18:41:41.244Z,1.95
2022-09-23T18:44:07.988Z,2.53
2022-09-23T18:46:34.609Z,2.20
2022-09-23T18:49:19.745Z,1.67
2022-09-23T18:51:55.593Z,2.20
2022-09-23T18:54:24.208Z,2.45
2022-09-23T18:56:52.697Z,3.75
2022-09-23T18:59:21.272Z,3.28
2022-09-23T19:01:50.063Z,3.90
2022-09-23T19:04:19.166Z,4.05
2022-09-23T19:06:46.398Z,2.60
2022-09-23T19:09:14.746Z,3.08
2022-09-23T19:11:41.651Z,2.30
2022-09-23T19:14:11.341Z,1.98
2022-09-23T19:16:39.348Z,2.13
2022-09-23T19:19:06.447Z,1.80
2022-09-23T19:21:33.627Z,2.05
2022-09-23T19:24:05.922Z,1.80
2022-09-23T19:26:38.940Z,1.92
2022-09-23T19:29:08.164Z,2.28
2022-09-23T19:31:40.150Z,1.85
2022-09-23T19:34:12.772Z,2.38
2022-09-23T19:36:42.147Z,2.00
2022-09-23T19:39:16.307Z,1.95
2022-09-23T19:41:42.961Z,2.22
2022-09-23T19:44:09.545Z,1.90
2022-09-23T19:46:37.959Z,2.17
2022-09-23T19:49:06.716Z,1.98
2022-09-23T19:51:34.490Z,2.10
2022-09-23T19:54:02.319Z,2.10
2022-09-23T19:56:30.549Z,2.00
2022-09-23T19:58:58.212Z,2.03
2022-09-23T20:01:29.823Z,1.90
2022-09-23T20:03:56.778Z,2.22
2022-09-23T20:06:23.540Z,2.05
2022-09-23T20:08:50.514Z,2.40
2022-09-23T20:11:26.178Z,2.28
2022-09-23T20:14:00.912Z,1.90
2022-09-23T20:16:32.427Z,2.17
2022-09-23T20:19:00.273Z,2.17
2022-09-23T20:21:28.166Z,6.07
2022-09-23T20:23:54.727Z,5.80
2022-09-23T20:26:39.906Z,3.40
2022-09-23T20:29:06.611Z,3.40
2022-09-23T20:31:34.635Z,4.10
2022-09-23T20:34:05.656Z,2.83
2022-09-23T20:36:34.069Z,3.15
2022-09-23T20:39:02.647Z,7.80
2022-09-23T20:41:31.216Z,4.22
2022-09-23T20:44:02.149Z,5.88
2022-09-23T20:46:29.479Z,4.97
2022-09-23T20:48:56.909Z,6.45
2022-09-23T20:51:24.897Z,4.30
2022-09-23T20:53:53.173Z,5.50
2022-09-23T20:56:21.054Z,5.35
2022-09-23T20:58:48.716Z,4.90
2022-09-23T21:01:16.270Z,4.03
2022-09-23T21:03:45.645Z,3.22
2022-09-23T21:06:14.520Z,3.03
2022-09-23T21:08:42.187Z,4.85
2022-09-23T21:11:15.029Z,4.65
2022-09-23T21:13:47.097Z,4.28
2022-09-23T21:16:17.856Z,3.55
2022-09-23T21:18:45.530Z,3.33
2022-09-23T21:21:14.115Z,4.05
2022-09-23T21:23:41.914Z,2.50
2022-09-23T21:26:13.714Z,3.13
2022-09-23T21:28:44.528Z,3.22
2022-09-23T21:31:17.570Z,2.53
2022-09-23T21:33:44.155Z,2.53
2022-09-23T21:36:10.649Z,3.08
2022-09-23T21:38:38.008Z,3.95
2022-09-23T21:41:07.847Z,3.22
2022-09-23T21:43:37.317Z,3.45
2022-09-23T21:46:07.125Z,3.70
2022-09-23T21:48:35.658Z,4.40
2022-09-23T21:51:05.451Z,4.57
2022-09-23T21:53:33.648Z,5.07
2022-09-23T21:56:05.273Z,3.90
2022-09-23T21:58:33.896Z,3.22
2022-09-23T22:01:01.249Z,4.75
2022-09-23T22:03:28.023Z,4.00
2022-09-23T22:06:02.461Z,4.63
2022-09-23T22:08:36.713Z,4.47
2022-09-23T22:11:29.067Z,4.38
2022-09-23T22:13:56.195Z,4.15
2022-09-23T22:16:22.848Z,6.20
2022-09-23T22:18:55.229Z,4.63
2022-09-23T22:21:23.074Z,5.00
2022-09-23T22:23:52.573Z,4.13
2022-09-23T22:26:19.481Z,4.68
2022-09-23T22:29:04.220Z,4.30
2022-09-23T22:31:49.075Z,4.97
2022-09-23T22:34:37.610Z,4.40
2022-09-23T22:37:03.325Z,4.75
2022-09-23T22:39:30.352Z,5.78
2022-09-23T22:41:58.401Z,5.32
2022-09-23T22:44:25.572Z,4.20
2022-09-23T22:46:52.435Z,5.55
2022-09-23T22:49:19.724Z,4.95
2022-09-23T22:51:46.540Z,5.05
2022-09-23T22:54:12.978Z,6.07
2022-09-23T22:56:39.387Z,5.82
2022-09-23T22:59:07.687Z,7.47
2022-09-23T23:01:35.344Z,8.23
2022-09-23T23:04:02.618Z,7.68
2022-09-23T23:06:35.864Z,8.20
2022-09-23T23:09:09.877Z,6.85
2022-09-23T23:11:36.468Z,8.43
2022-09-23T23:14:03.306Z,6.43
2022-09-23T23:16:35.559Z,8.02
2022-09-23T23:19:09.458Z,8.73
2022-09-23T23:21:36.875Z,7.82
2022-09-23T23:24:04.621Z,5.60
2022-09-23T23:26:33.406Z,6.03
2022-09-23T23:29:01.020Z,6.18
2022-09-23T23:31:29.274Z,8.52
2022-09-23T23:33:55.771Z,8.27
2022-09-23T23:36:23.098Z,8.05
2022-09-23T23:38:51.595Z,7.72
2022-09-23T23:41:20.211Z,8.48
2022-09-23T23:43:47.436Z,6.10
2022-09-23T23:46:14.766Z,5.00
2022-09-23T23:48:42.870Z,4.00
2022-09-23T23:51:11.048Z,7.07
2022-09-23T23:53:39.454Z,6.97
2022-09-23T23:56:12.453Z,7.63
2022-09-23T23:58:39.593Z,7.72
